createdAt,value
2023-04-28T00:00:04.820Z,14.70
2023-04-28T00:02:35.954Z,14.70
2023-04-28T00:05:07.916Z,14.70
2023-04-28T00:07:38.735Z,14.80
2023-04-28T00:10:12.194Z,14.80
2023-04-28T00:12:43.192Z,14.80
2023-04-28T00:15:14.446Z,14.80
2023-04-28T00:17:45.313Z,14.80
2023-04-28T00:20:16.288Z,14.80
2023-04-28T00:22:47.075Z,14.80
2023-04-28T00:25:18.235Z,14.80
2023-04-28T00:27:48.989Z,14.80
2023-04-28T00:30:20.218Z,14.60
2023-04-28T00:32:51.064Z,14.50
2023-04-28T00:35:22.351Z,14.50
2023-04-28T00:37:52.958Z,14.50
2023-04-28T00:40:23.672Z,14.50
2023-04-28T00:42:54.388Z,14.40
2023-04-28T00:45:25.224Z,14.30
2023-04-28T00:47:56.266Z,14.20
2023-04-28T00:50:27.694Z,14.20
2023-04-28T00:52:58.416Z,14.10
2023-04-28T00:55:29.295Z,14.00
2023-04-28T00:58:00.793Z,13.90
2023-04-28T01:00:31.717Z,13.90
2023-04-28T01:03:03.893Z,14.00
2023-04-28T01:05:35.603Z,13.90
2023-04-28T01:08:06.494Z,13.90
2023-04-28T01:10:37.130Z,13.80
2023-04-28T01:13:07.875Z,13.70
2023-04-28T01:15:39.204Z,13.70
2023-04-28T01:18:10.026Z,13.90
2023-04-28T01:20:41.001Z,13.80
2023-04-28T01:23:15.413Z,13.60
2023-04-28T01:25:46.624Z,13.60
2023-04-28T01:28:17.502Z,13.50
2023-04-28T01:30:48.280Z,13.40
2023-04-28T01:33:19.070Z,13.40
2023-04-28T01:35:49.868Z,13.40
2023-04-28T01:38:20.713Z,13.60
2023-04-28T01:40:51.584Z,13.70
2023-04-28T01:43:22.629Z,13.60
2023-04-28T01:45:53.284Z,13.50
2023-04-28T01:48:24.071Z,13.50
2023-04-28T01:50:54.638Z,13.50
2023-04-28T01:53:25.465Z,13.30
2023-04-28T01:55:56.757Z,13.30
2023-04-28T01:58:27.539Z,13.40
2023-04-28T02:00:58.259Z,13.30
2023-04-28T02:03:29.277Z,13.10
2023-04-28T02:06:00.188Z,13.10
2023-04-28T02:08:30.948Z,13.00
2023-04-28T02:11:02.056Z,12.90
2023-04-28T02:13:32.784Z,12.80
2023-04-28T02:16:04.374Z,12.70
2023-04-28T02:18:36.140Z,12.80
2023-04-28T02:21:12.426Z,12.70
2023-04-28T02:23:43.352Z,12.60
2023-04-28T02:26:14.053Z,12.60
2023-04-28T02:28:44.741Z,12.60
2023-04-28T02:31:15.726Z,12.60
2023-04-28T02:33:46.666Z,12.40
2023-04-28T02:36:17.894Z,12.30
2023-04-28T02:38:48.683Z,12.30
2023-04-28T02:41:19.411Z,12.30
2023-04-28T02:43:50.125Z,12.40
2023-04-28T02:46:20.965Z,12.40
2023-04-28T02:48:51.685Z,12.50
2023-04-28T02:51:23.431Z,12.50
2023-04-28T02:53:54.044Z,12.40
2023-04-28T02:56:24.757Z,12.30
2023-04-28T02:58:55.752Z,12.30
2023-04-28T03:01:27.613Z,12.30
2023-04-28T03:03:58.677Z,12.10
2023-04-28T03:06:29.531Z,12.20
2023-04-28T03:09:00.334Z,12.10
2023-04-28T03:11:31.082Z,12.00
2023-04-28T03:14:01.844Z,12.00
2023-04-28T03:16:32.517Z,11.90
2023-04-28T03:19:03.808Z,11.90
2023-04-28T03:21:34.700Z,11.70
2023-04-28T03:24:06.115Z,11.60
2023-04-28T03:26:37.561Z,11.50
2023-04-28T03:29:08.307Z,11.40
2023-04-28T03:31:39.118Z,11.40
2023-04-28T03:34:09.829Z,11.40
2023-04-28T03:36:40.559Z,11.40
2023-04-28T03:39:11.531Z,11.50
2023-04-28T03:41:42.336Z,11.60
2023-04-28T03:44:12.967Z,11.60
2023-04-28T03:46:43.819Z,11.70
2023-04-28T03:49:14.501Z,11.70
2023-04-28T03:51:45.361Z,11.80
2023-04-28T03:54:16.418Z,11.90
2023-04-28T03:56:48.502Z,12.00
2023-04-28T03:59:19.262Z,12.10
2023-04-28T04:01:49.945Z,12.10
2023-04-28T04:04:21.099Z,12.20
2023-04-28T04:06:53.472Z,12.20
2023-04-28T04:09:24.313Z,12.20
2023-04-28T04:11:55.920Z,12.20
2023-04-28T04:14:26.641Z,12.20
2023-04-28T04:16:57.394Z,12.20
2023-04-28T04:19:28.212Z,12.00
2023-04-28T04:21:58.970Z,12.00
2023-04-28T04:24:29.832Z,12.10
2023-04-28T04:27:00.938Z,12.00
2023-04-28T04:29:31.878Z,12.00
2023-04-28T04:32:02.738Z,11.80
2023-04-28T04:34:33.468Z,11.90
2023-04-28T04:37:04.068Z,11.90
2023-04-28T04:39:34.765Z,11.80
2023-04-28T04:42:20.653Z,11.80
2023-04-28T04:44:38.438Z,11.80
2023-04-28T04:47:09.274Z,11.80
2023-04-28T04:49:39.973Z,11.80
2023-04-28T04:52:12.730Z,11.90
2023-04-28T04:54:43.473Z,11.90
2023-04-28T04:57:14.744Z,12.00
2023-04-28T04:59:46.158Z,11.90
2023-04-28T05:02:19.302Z,12.00
2023-04-28T05:04:50.361Z,12.10
2023-04-28T05:07:21.470Z,12.30
2023-04-28T05:09:52.178Z,12.40
2023-04-28T05:12:22.963Z,12.40
2023-04-28T05:14:53.723Z,12.40
2023-04-28T05:17:24.503Z,12.40
2023-04-28T05:19:55.318Z,12.50
2023-04-28T05:22:27.035Z,12.50
2023-04-28T05:24:57.735Z,12.60
2023-04-28T05:27:28.597Z,12.70
2023-04-28T05:30:00.167Z,12.70
2023-04-28T05:32:31.032Z,12.80
2023-04-28T05:35:02.209Z,12.90
2023-04-28T05:37:32.989Z,12.90
2023-04-28T05:42:41.038Z,13.10
2023-04-28T05:45:14.508Z,13.10
2023-04-28T05:47:45.290Z,13.10
2023-04-28T05:52:55.129Z,13.20
2023-04-28T05:55:27.202Z,13.20
2023-04-28T05:57:58.947Z,13.20
2023-04-28T06:00:29.852Z,13.20
2023-04-28T06:03:00.882Z,13.20
2023-04-28T06:05:32.731Z,13.30
2023-04-28T06:08:04.839Z,13.50
2023-04-28T06:10:35.987Z,13.70
2023-04-28T06:13:06.792Z,13.80
2023-04-28T06:15:37.710Z,13.90
2023-04-28T06:18:09.843Z,14.00
2023-04-28T06:20:40.741Z,14.00
2023-04-28T06:23:13.477Z,14.20
2023-04-28T06:25:44.198Z,14.30
2023-04-28T06:28:15.218Z,14.50
2023-04-28T06:30:46.294Z,14.40
2023-04-28T06:33:17.072Z,14.60
2023-04-28T06:35:48.056Z,14.80
2023-04-28T06:38:18.779Z,15.20
2023-04-28T06:40:49.404Z,15.50
2023-04-28T06:43:20.049Z,15.60
2023-04-28T06:45:50.672Z,15.50
2023-04-28T06:48:21.530Z,15.60
2023-04-28T06:50:52.210Z,15.50
2023-04-28T06:53:22.979Z,15.40
2023-04-28T06:55:53.883Z,15.40
2023-04-28T06:58:24.851Z,15.30
2023-04-28T07:00:56.265Z,15.40
2023-04-28T07:03:28.932Z,15.30
2023-04-28T07:06:00.604Z,15.40
2023-04-28T07:08:31.611Z,15.40
2023-04-28T07:11:04.751Z,15.40
2023-04-28T07:13:35.965Z,15.60
2023-04-28T07:16:08.469Z,16.00
2023-04-28T07:18:39.211Z,16.20
2023-04-28T07:21:09.956Z,16.40
2023-04-28T07:23:41.143Z,16.50
2023-04-28T07:26:14.312Z,16.50
2023-04-28T07:28:45.161Z,16.70
2023-04-28T07:31:15.960Z,16.90
2023-04-28T07:33:46.726Z,17.20
2023-04-28T07:36:17.388Z,17.40
2023-04-28T07:38:48.234Z,17.40
2023-04-28T07:41:19.832Z,17.50
2023-04-28T07:43:50.969Z,17.40
2023-04-28T07:46:21.727Z,17.70
2023-04-28T07:48:52.379Z,17.60
2023-04-28T07:51:23.129Z,17.30
2023-04-28T07:53:54.129Z,17.10
2023-04-28T07:56:25.971Z,17.00
2023-04-28T07:58:57.357Z,17.00
2023-04-28T08:04:07.073Z,17.50
2023-04-28T08:06:38.360Z,17.70
2023-04-28T08:09:09.208Z,18.00
2023-04-28T08:11:39.948Z,18.40
2023-04-28T08:14:10.658Z,18.20
2023-04-28T08:16:42.183Z,18.30
2023-04-28T08:19:12.926Z,18.40
2023-04-28T08:21:43.622Z,18.50
2023-04-28T08:24:14.297Z,18.70
2023-04-28T08:26:45.234Z,18.70
2023-04-28T08:29:16.106Z,18.60
2023-04-28T08:31:46.801Z,19.00
2023-04-28T08:34:20.146Z,18.70
2023-04-28T08:36:51.283Z,18.80
2023-04-28T08:39:23.825Z,19.00
2023-04-28T08:41:54.672Z,19.10
2023-04-28T08:44:25.298Z,19.50
2023-04-28T08:46:58.876Z,19.50
2023-04-28T08:49:32.718Z,19.70
2023-04-28T08:52:04.411Z,19.50
2023-04-28T08:54:37.600Z,19.50
2023-04-28T08:57:10.863Z,19.30
2023-04-28T08:59:42.838Z,19.20
2023-04-28T09:02:13.824Z,19.30
2023-04-28T09:04:45.382Z,19.90
2023-04-28T09:07:16.555Z,20.20
2023-04-28T09:09:47.255Z,20.30
2023-04-28T09:12:26.149Z,20.30
2023-04-28T09:15:01.906Z,20.90
2023-04-28T09:17:32.771Z,21.00
2023-04-28T09:20:04.769Z,20.80
2023-04-28T09:22:35.537Z,20.70
2023-04-28T09:25:16.267Z,20.40
2023-04-28T09:27:47.161Z,20.30
2023-04-28T09:30:18.225Z,20.20
2023-04-28T09:32:56.214Z,19.80
2023-04-28T09:35:43.328Z,19.80
2023-04-28T09:38:14.126Z,19.90
2023-04-28T09:40:59.407Z,19.80
2023-04-28T09:43:34.318Z,19.90
2023-04-28T09:46:06.921Z,19.70
2023-04-28T09:48:40.061Z,19.70
2023-04-28T09:51:13.082Z,20.20
2023-04-28T09:53:44.364Z,20.50
2023-04-28T09:56:15.302Z,20.90
2023-04-28T09:58:47.405Z,20.90
2023-04-28T10:01:20.542Z,21.10
2023-04-28T10:03:52.663Z,21.30
2023-04-28T10:06:24.117Z,21.50
2023-04-28T10:08:54.747Z,21.70
2023-04-28T10:11:26.497Z,21.70
2023-04-28T10:13:57.162Z,22.10
2023-04-28T10:16:31.202Z,21.90
2023-04-28T10:19:03.510Z,21.90
2023-04-28T10:21:37.281Z,21.90
2023-04-28T10:24:13.630Z,22.20
2023-04-28T10:29:51.100Z,22.50
2023-04-28T10:32:25.633Z,22.60
2023-04-28T10:35:16.442Z,22.50
2023-04-28T10:38:05.302Z,22.80
2023-04-28T10:40:36.613Z,22.80
2023-04-28T10:43:08.400Z,22.80
2023-04-28T10:46:05.111Z,22.90
2023-04-28T10:48:58.541Z,23.10
2023-04-28T10:51:33.656Z,23.20
2023-04-28T10:54:12.196Z,23.00
2023-04-28T10:56:45.890Z,22.40
2023-04-28T10:59:29.208Z,22.40
2023-04-28T11:02:20.199Z,22.30
2023-04-28T11:05:13.363Z,22.50
2023-04-28T11:07:50.089Z,22.70
2023-04-28T11:10:21.105Z,22.80
2023-04-28T11:13:30.661Z,23.30
2023-04-28T11:16:08.073Z,23.40
2023-04-28T11:18:43.355Z,23.10
2023-04-28T11:21:15.910Z,23.10
2023-04-28T11:23:47.916Z,23.40
2023-04-28T11:26:20.517Z,23.50
2023-04-28T11:28:54.341Z,23.70
2023-04-28T11:31:27.137Z,23.30
2023-04-28T11:34:05.270Z,23.60
2023-04-28T11:36:38.811Z,23.80
2023-04-28T11:41:48.830Z,24.10
2023-04-28T11:44:22.070Z,23.90
2023-04-28T11:46:56.450Z,23.70
2023-04-28T11:49:29.548Z,24.20
2023-04-28T11:52:03.790Z,24.30
2023-04-28T11:54:37.418Z,24.20
2023-04-28T11:57:12.283Z,23.80
2023-04-28T11:59:43.214Z,23.90
2023-04-28T12:02:15.056Z,24.20
2023-04-28T12:04:50.265Z,24.20
2023-04-28T12:07:21.689Z,24.00
2023-04-28T12:12:53.076Z,24.20
2023-04-28T12:15:25.111Z,24.00
2023-04-28T12:17:55.870Z,24.10
2023-04-28T12:20:41.007Z,23.80
2023-04-28T12:23:11.876Z,23.70
2023-04-28T12:25:49.214Z,23.90
2023-04-28T12:28:19.980Z,24.20
2023-04-28T12:30:51.327Z,24.30
2023-04-28T12:33:30.013Z,24.10
2023-04-28T12:36:00.779Z,24.00
2023-04-28T12:38:32.702Z,23.70
2023-04-28T12:41:03.384Z,23.50
2023-04-28T12:43:34.843Z,23.50
2023-04-28T12:46:05.523Z,23.60
2023-04-28T12:48:36.249Z,23.90
2023-04-28T12:51:07.156Z,24.00
2023-04-28T12:53:37.804Z,24.10
2023-04-28T12:56:08.904Z,24.50
2023-04-28T12:58:39.682Z,25.00
2023-04-28T13:01:10.658Z,25.00
2023-04-28T13:03:41.567Z,24.80
2023-04-28T13:06:12.803Z,24.60
2023-04-28T13:08:44.764Z,24.90
2023-04-28T13:11:22.938Z,25.20
2023-04-28T13:13:47.930Z,25.90
2023-04-28T13:16:18.682Z,26.50
2023-04-28T13:18:50.343Z,25.80
2023-04-28T13:21:21.143Z,25.70
2023-04-28T13:23:51.796Z,25.90
2023-04-28T13:26:24.192Z,25.90
2023-04-28T13:28:55.039Z,25.70
2023-04-28T13:31:25.947Z,25.90
2023-04-28T13:33:56.697Z,26.00
2023-04-28T13:36:29.497Z,26.00
2023-04-28T13:41:31.488Z,26.00
2023-04-28T13:44:02.257Z,26.30
2023-04-28T13:46:33.020Z,26.10
2023-04-28T13:49:05.108Z,25.50
2023-04-28T13:51:35.815Z,25.60
2023-04-28T13:54:08.574Z,25.90
2023-04-28T13:56:39.320Z,26.10
2023-04-28T13:59:10.060Z,25.80
2023-04-28T14:01:40.970Z,25.80
2023-04-28T14:04:11.826Z,25.50
2023-04-28T14:06:42.950Z,25.80
2023-04-28T14:09:13.555Z,25.80
2023-04-28T14:11:44.828Z,25.50
2023-04-28T14:14:15.438Z,25.20
2023-04-28T14:16:47.375Z,25.00
2023-04-28T14:19:18.810Z,24.80
2023-04-28T14:21:49.487Z,24.40
2023-04-28T14:24:20.394Z,24.80
2023-04-28T14:26:51.071Z,25.00
2023-04-28T14:29:21.693Z,25.00
2023-04-28T14:31:52.332Z,24.90
2023-04-28T14:34:23.044Z,24.80
2023-04-28T14:36:53.876Z,24.50
2023-04-28T14:39:24.533Z,24.50
2023-04-28T14:41:55.294Z,24.30
2023-04-28T14:44:26.290Z,24.20
2023-04-28T14:46:57.258Z,23.90
2023-04-28T14:49:28.557Z,23.80
2023-04-28T14:52:01.151Z,23.80
2023-04-28T14:54:32.528Z,23.80
2023-04-28T14:57:04.245Z,23.50
2023-04-28T14:59:35.826Z,23.00
2023-04-28T15:02:06.679Z,22.90
2023-04-28T15:04:37.942Z,22.80
2023-04-28T15:07:09.580Z,22.60
2023-04-28T15:09:40.301Z,22.40
2023-04-28T15:12:11.195Z,22.30
2023-04-28T15:14:41.883Z,22.20
2023-04-28T15:17:12.457Z,22.30
2023-04-28T15:19:43.116Z,22.30
2023-04-28T15:22:14.047Z,22.30
2023-04-28T15:24:44.724Z,22.30
2023-04-28T15:27:15.513Z,22.10
2023-04-28T15:29:46.177Z,22.30
2023-04-28T15:32:16.927Z,22.40
2023-04-28T15:34:48.316Z,22.50
2023-04-28T15:37:43.107Z,22.60
2023-04-28T15:40:16.367Z,22.40
2023-04-28T15:42:49.383Z,22.30
2023-04-28T15:45:22.197Z,22.40
2023-04-28T15:47:55.192Z,22.40
2023-04-28T15:50:27.230Z,22.50
2023-04-28T15:52:59.101Z,22.50
2023-04-28T15:55:31.050Z,22.40
2023-04-28T15:58:02.416Z,22.50
2023-04-28T16:00:35.209Z,22.50
2023-04-28T16:03:07.151Z,22.50
2023-04-28T16:05:39.007Z,22.50
2023-04-28T16:08:09.655Z,22.40
2023-04-28T16:10:42.562Z,22.40
2023-04-28T16:13:13.401Z,22.40
2023-04-28T16:15:44.316Z,22.40
2023-04-28T16:18:17.627Z,22.30
2023-04-28T16:20:48.430Z,22.20
2023-04-28T16:23:21.194Z,22.20
2023-04-28T16:25:51.927Z,22.20
2023-04-28T16:28:22.675Z,22.20
2023-04-28T16:30:53.522Z,22.20
2023-04-28T16:33:24.278Z,22.10
2023-04-28T16:35:59.823Z,22.10
2023-04-28T16:38:30.801Z,22.10
2023-04-28T16:41:01.509Z,22.00
2023-04-28T16:43:33.004Z,21.90
2023-04-28T16:46:04.654Z,21.70
2023-04-28T16:48:35.412Z,21.80
2023-04-28T16:51:08.619Z,21.80
2023-04-28T16:53:40.002Z,21.80
2023-04-28T16:56:11.285Z,21.90
2023-04-28T16:58:42.217Z,21.70
2023-04-28T17:01:13.896Z,21.60
2023-04-28T17:03:45.001Z,21.50
2023-04-28T17:06:16.257Z,21.30
2023-04-28T17:08:46.869Z,21.20
2023-04-28T17:11:19.396Z,21.10
2023-04-28T17:13:50.392Z,21.10
2023-04-28T17:16:21.107Z,21.10
2023-04-28T17:18:53.035Z,21.00
2023-04-28T17:21:23.828Z,20.90
2023-04-28T17:23:54.506Z,20.90
2023-04-28T17:26:25.266Z,20.80
2023-04-28T17:28:56.642Z,20.60
2023-04-28T17:31:27.737Z,20.60
2023-04-28T17:33:59.802Z,20.40
2023-04-28T17:36:32.128Z,20.30
2023-04-28T17:39:04.229Z,20.40
2023-04-28T17:41:36.430Z,20.40
2023-04-28T17:44:07.707Z,20.30
2023-04-28T17:46:39.005Z,20.20
2023-04-28T17:49:09.769Z,20.30
2023-04-28T17:51:40.563Z,20.20
2023-04-28T17:54:11.436Z,20.10
2023-04-28T17:56:42.095Z,19.90
2023-04-28T17:59:14.349Z,19.80
2023-04-28T18:01:45.343Z,19.80
2023-04-28T18:04:16.062Z,19.80
2023-04-28T18:06:46.818Z,19.70
2023-04-28T18:09:17.916Z,19.60
2023-04-28T18:11:48.587Z,19.60
2023-04-28T18:14:19.662Z,19.50
2023-04-28T18:16:50.647Z,19.40
2023-04-28T18:19:21.342Z,19.40
2023-04-28T18:21:52.384Z,19.30
2023-04-28T18:24:23.258Z,19.30
2023-04-28T18:26:54.113Z,19.10
2023-04-28T18:29:24.795Z,19.10
2023-04-28T18:31:55.940Z,19.20
2023-04-28T18:34:27.591Z,19.10
2023-04-28T18:36:58.268Z,19.00
2023-04-28T18:39:29.122Z,19.00
2023-04-28T18:42:00.322Z,18.90
2023-04-28T18:44:31.436Z,18.90
2023-04-28T18:47:02.279Z,19.00
2023-04-28T18:49:32.901Z,19.10
2023-04-28T18:52:03.801Z,19.00
2023-04-28T18:54:34.559Z,19.00
2023-04-28T18:57:05.308Z,19.00
2023-04-28T18:59:36.051Z,18.90
2023-04-28T19:02:07.063Z,18.80
2023-04-28T19:04:39.386Z,18.80
2023-04-28T19:07:10.264Z,18.80
2023-04-28T19:09:42.215Z,18.90
2023-04-28T19:12:13.052Z,18.80
2023-04-28T19:14:43.959Z,18.80
2023-04-28T19:17:16.413Z,18.80
2023-04-28T19:19:47.233Z,18.70
2023-04-28T19:25:23.450Z,18.70
2023-04-28T19:27:54.196Z,18.50
2023-04-28T19:30:25.049Z,18.50
2023-04-28T19:32:56.016Z,18.70
2023-04-28T19:35:27.307Z,19.10
2023-04-28T19:37:58.349Z,19.20
2023-04-28T19:40:30.288Z,18.90
2023-04-28T19:43:01.293Z,18.80
2023-04-28T19:45:32.189Z,18.80
2023-04-28T19:48:03.451Z,18.40
2023-04-28T19:50:34.399Z,18.00
2023-04-28T19:53:05.147Z,17.50
2023-04-28T19:55:37.216Z,17.20
2023-04-28T19:58:10.960Z,17.00
2023-04-28T20:00:41.676Z,16.80
2023-04-28T20:03:13.349Z,16.70
2023-04-28T20:05:44.116Z,16.60
2023-04-28T20:08:15.225Z,16.90
2023-04-28T20:10:46.887Z,16.80
2023-04-28T20:13:18.624Z,16.50
2023-04-28T20:15:49.329Z,16.50
2023-04-28T20:18:20.181Z,16.30
2023-04-28T20:20:52.435Z,16.20
2023-04-28T20:23:23.382Z,16.20
2023-04-28T20:25:54.608Z,16.00
2023-04-28T20:28:25.423Z,15.90
2023-04-28T20:30:56.177Z,15.90
2023-04-28T20:33:27.451Z,15.90
2023-04-28T20:35:58.175Z,15.80
2023-04-28T20:38:30.155Z,15.70
2023-04-28T20:41:01.266Z,15.70
2023-04-28T20:43:32.721Z,15.60
2023-04-28T20:46:03.530Z,15.60
2023-04-28T20:48:34.469Z,15.60
2023-04-28T20:51:06.924Z,15.60
2023-04-28T20:53:38.510Z,15.60
2023-04-28T20:56:09.545Z,15.50
2023-04-28T20:58:41.873Z,15.40
2023-04-28T21:01:12.798Z,15.30
2023-04-28T21:03:43.697Z,15.40
2023-04-28T21:06:14.553Z,15.40
2023-04-28T21:08:45.619Z,15.30
2023-04-28T21:11:17.309Z,15.30
2023-04-28T21:13:48.516Z,15.30
2023-04-28T21:16:21.629Z,15.30
2023-04-28T21:18:52.949Z,15.30
2023-04-28T21:21:23.726Z,15.20
2023-04-28T21:23:55.634Z,15.20
2023-04-28T21:26:26.967Z,15.20
2023-04-28T21:28:57.745Z,15.20
2023-04-28T21:31:28.523Z,15.10
2023-04-28T21:33:59.268Z,15.10
2023-04-28T21:36:30.112Z,15.10
2023-04-28T21:39:00.693Z,15.00
2023-04-28T21:41:32.796Z,15.00
2023-04-28T21:44:03.528Z,15.10
2023-04-28T21:46:34.343Z,14.90
2023-04-28T21:49:05.766Z,14.90
2023-04-28T21:51:36.855Z,14.90
2023-04-28T21:54:08.543Z,14.90
2023-04-28T21:56:39.796Z,14.90
2023-04-28T21:59:10.614Z,14.90
2023-04-28T22:01:41.911Z,14.80
2023-04-28T22:04:12.892Z,14.80
2023-04-28T22:06:45.018Z,14.70
2023-04-28T22:09:15.825Z,14.80
2023-04-28T22:11:46.472Z,14.80
2023-04-28T22:14:30.597Z,14.70
2023-04-28T22:16:49.317Z,14.70
2023-04-28T22:19:20.022Z,14.70
2023-04-28T22:21:51.021Z,14.70
2023-04-28T22:24:21.841Z,14.80
2023-04-28T22:26:52.580Z,14.80
2023-04-28T22:29:23.382Z,14.80
2023-04-28T22:31:54.239Z,14.80
2023-04-28T22:34:25.889Z,14.80
2023-04-28T22:36:56.964Z,14.70
2023-04-28T22:39:27.781Z,14.60
2023-04-28T22:41:58.610Z,14.50
2023-04-28T22:44:29.269Z,14.40
2023-04-28T22:47:00.127Z,14.40
2023-04-28T22:49:31.103Z,14.20
2023-04-28T22:52:01.863Z,14.20
2023-04-28T22:54:32.928Z,14.20
2023-04-28T22:57:04.052Z,14.20
2023-04-28T22:59:35.401Z,14.30
2023-04-28T23:02:06.346Z,14.30
2023-04-28T23:04:37.562Z,14.30
2023-04-28T23:07:08.470Z,14.20
2023-04-28T23:09:39.118Z,14.20
2023-04-28T23:12:10.035Z,14.20
2023-04-28T23:14:40.791Z,14.20
2023-04-28T23:17:11.566Z,14.30
2023-04-28T23:19:42.191Z,14.30
2023-04-28T23:22:13.189Z,14.30
2023-04-28T23:24:44.166Z,14.30
2023-04-28T23:27:14.963Z,14.30
2023-04-28T23:29:45.537Z,14.30
2023-04-28T23:32:16.298Z,14.30
2023-04-28T23:34:47.157Z,14.20
2023-04-28T23:37:17.817Z,14.20
2023-04-28T23:39:48.528Z,14.20
2023-04-28T23:42:19.482Z,14.20
2023-04-28T23:44:52.036Z,14.20
2023-04-28T23:47:22.632Z,14.20
2023-04-28T23:49:53.548Z,14.20
2023-04-28T23:52:24.388Z,14.20
2023-04-28T23:54:55.042Z,14.20
2023-04-28T23:57:26.093Z,14.20
2023-04-28T23:59:56.719Z,14.20
